»·PEaware :: N58EU KVNY-KPSP

N58EU :: KVNY-KPSP

FLIGHT INFORMATION

Flight Status: Arrived
Operator: Privately registered:
United States
More flights under this callsign
Pilot: Anonymous 26289 (26289)
Aircraft: BEECH AIRCRAFT BARON
(BE58)
More flights by this aircraft type
Origin: KVNY Van Nuys
United States
Destination: KPSP Palm Springs Intl
United States
More flights between these airports :: More routes between these airports
Route:
File this flight plan on PilotEdge
Remarks:
Altitude:
(Current/Filed)
7,500ft
Speed:
(Current/Filed)
180kts
Departed: 09-Oct-19 12:22 PM
Arrived: 09-Oct-19 01:04 PM
Distance/Time
Traveled:
102nm/0:42
Distance/Time
To Go:
Arrived

Flight Plot

Page will automatically refresh every two minutes.


Map Options




Map Legend


Flown Route
Filed Route
Departure Airport
Arrival Airport
Navaid (VOR, NDB)
Fix

Horizontal Profiles

Position Reports

Time Latitude Longitude Heading Altitude Ground
Speed
09-Oct-19 12:03 34.211350 -118.492019 88 805ft 0kts
09-Oct-19 12:04 34.211350 -118.492019 88 805ft 0kts
09-Oct-19 12:05 34.211350 -118.492019 88 805ft 0kts
09-Oct-19 12:06 34.211350 -118.492019 88 805ft 0kts
09-Oct-19 12:07 34.211350 -118.492019 88 805ft 0kts
09-Oct-19 12:08 34.211350 -118.492019 88 805ft 0kts
09-Oct-19 12:09 34.211350 -118.492019 88 805ft 0kts
09-Oct-19 12:10 34.211427 -118.491887 35 805ft 2kts
09-Oct-19 12:11 34.212566 -118.491803 356 805ft 5kts
09-Oct-19 12:12 34.214447 -118.491981 355 805ft 7kts
09-Oct-19 12:13 34.216527 -118.492255 357 805ft 7kts
09-Oct-19 12:14 34.218648 -118.492403 348 805ft 7kts
09-Oct-19 12:15 34.219071 -118.492340 112 805ft 0kts
09-Oct-19 12:16 34.219071 -118.492340 112 805ft 0kts
09-Oct-19 12:17 34.219071 -118.492340 112 805ft 0kts
09-Oct-19 12:18 34.218742 -118.492251 151 805ft 1kts
09-Oct-19 12:19 34.218711 -118.492129 78 805ft 0kts
09-Oct-19 12:20 34.218583 -118.491292 137 805ft 4kts
09-Oct-19 12:21 34.200946 -118.489597 176 1370ft 112kts
09-Oct-19 12:22 34.173487 -118.471850 130 2657ft 139kts
09-Oct-19 12:23 34.157895 -118.426840 92 3622ft 151kts
09-Oct-19 12:24 34.155504 -118.371774 83 4106ft 180kts
09-Oct-19 12:25 34.160975 -118.313009 71 4975ft 163kts
09-Oct-19 12:26 34.159056 -118.261451 101 6151ft 151kts
09-Oct-19 12:27 34.145133 -118.215838 107 7328ft 139kts
09-Oct-19 12:28 34.128000 -118.165175 110 7533ft 187kts
09-Oct-19 12:29 34.106356 -118.103547 110 7529ft 207kts
09-Oct-19 12:30 34.084632 -118.038396 109 7529ft 207kts
09-Oct-19 12:31 34.063548 -117.973314 110 7531ft 208kts
09-Oct-19 12:32 34.042210 -117.907853 111 7531ft 209kts
09-Oct-19 12:33 34.020878 -117.842511 111 7531ft 209kts
09-Oct-19 12:34 33.999374 -117.777031 110 7530ft 209kts
09-Oct-19 12:35 33.978085 -117.711997 109 7531ft 208kts
09-Oct-19 12:36 33.956810 -117.647085 109 7534ft 207kts
09-Oct-19 12:37 33.935648 -117.582658 108 7537ft 206kts
09-Oct-19 12:38 33.919597 -117.517361 85 7535ft 201kts
09-Oct-19 12:39 33.921590 -117.450511 82 7527ft 194kts
09-Oct-19 12:40 33.924179 -117.386462 82 7522ft 186kts
09-Oct-19 12:41 33.926607 -117.325708 82 7519ft 178kts
09-Oct-19 12:42 33.928933 -117.266867 81 7520ft 173kts
09-Oct-19 12:43 33.931117 -117.211028 81 7519ft 159kts
09-Oct-19 12:45 33.933303 -117.157758 93 7250ft 165kts
09-Oct-19 12:46 33.935790 -117.099038 92 6738ft 180kts
09-Oct-19 12:47 33.937794 -117.038374 91 6228ft 180kts
09-Oct-19 12:48 33.940022 -116.978883 91 5711ft 173kts
09-Oct-19 12:49 33.942115 -116.922018 90 5199ft 168kts
09-Oct-19 12:50 33.944151 -116.866054 90 4688ft 165kts
09-Oct-19 12:51 33.945529 -116.811535 94 4184ft 161kts
09-Oct-19 12:52 33.937284 -116.758743 98 3683ft 159kts
09-Oct-19 12:53 33.929119 -116.707891 98 3539ft 141kts
09-Oct-19 12:54 33.921763 -116.662291 98 3247ft 134kts
09-Oct-19 12:55 33.915049 -116.618419 98 2745ft 132kts
09-Oct-19 12:56 33.908813 -116.576530 98 2503ft 116kts
09-Oct-19 12:57 33.903635 -116.538834 96 2210ft 127kts
09-Oct-19 12:58 33.877714 -116.514056 167 1606ft 133kts
09-Oct-19 12:59 33.849554 -116.494006 130 1511ft 114kts
09-Oct-19 13:00 33.830773 -116.464714 131 1625ft 111kts
09-Oct-19 13:01 33.805807 -116.457561 225 1279ft 112kts
09-Oct-19 13:02 33.808489 -116.486256 325 829ft 99kts
09-Oct-19 13:03 33.828400 -116.503684 322 480ft 64kts
09-Oct-19 13:04 33.831745 -116.506038 52 480ft 0kts
09-Oct-19 13:05 33.831758 -116.506017 53 480ft 1kts
09-Oct-19 13:06 33.831349 -116.505291 143 480ft 5kts
09-Oct-19 13:06 33.830186 -116.504256 142 480ft 6kts
09-Oct-19 13:07 33.828662 -116.502906 143 480ft 5kts
09-Oct-19 13:09 33.827462 -116.501846 143 480ft 3kts
09-Oct-19 13:09 33.826876 -116.501305 137 480ft 2kts
09-Oct-19 13:10 33.826633 -116.500521 114 480ft 2kts
09-Oct-19 13:11 33.826613 -116.500000 325 480ft 2kts

Navigation Log

Ident Type
Flight plan parsing failed, navigation log unavailable